createdAt,value
2022-11-21T00:02:11.192Z,21.17
2022-11-21T00:04:39.406Z,21.47
2022-11-21T00:07:08.964Z,21.33
2022-11-21T00:09:37.442Z,18.17
2022-11-21T00:12:06.532Z,19.67
2022-11-21T00:14:35.414Z,22.27
2022-11-21T00:17:06.976Z,23.87
2022-11-21T00:19:35.220Z,23.00
2022-11-21T00:22:03.430Z,23.70
2022-11-21T00:24:32.988Z,20.33
2022-11-21T00:27:01.302Z,19.47
2022-11-21T00:29:29.641Z,19.97
2022-11-21T00:31:58.617Z,27.77
2022-11-21T00:34:27.039Z,22.73
2022-11-21T00:36:55.370Z,24.93
2022-11-21T00:39:23.511Z,21.70
2022-11-21T00:41:52.951Z,18.90
2022-11-21T00:44:21.138Z,22.17
2022-11-21T00:46:49.331Z,20.13
2022-11-21T00:49:17.516Z,25.33
2022-11-21T00:51:45.894Z,21.83
2022-11-21T00:54:16.379Z,28.27
2022-11-21T00:56:44.512Z,23.10
2022-11-21T00:59:13.975Z,23.00
2022-11-21T01:01:42.112Z,24.80
2022-11-21T01:04:10.268Z,23.63
2022-11-21T01:06:38.721Z,23.63
2022-11-21T01:09:06.932Z,19.37
2022-11-21T01:11:35.278Z,20.77
2022-11-21T01:14:03.709Z,22.90
2022-11-21T01:16:33.690Z,20.20
2022-11-21T01:19:01.885Z,21.60
2022-11-21T01:21:32.063Z,20.27
2022-11-21T01:24:01.643Z,23.50
2022-11-21T01:26:31.362Z,21.20
2022-11-21T01:29:00.171Z,21.17
2022-11-21T01:31:30.494Z,23.17
2022-11-21T01:34:01.203Z,20.00
2022-11-21T01:36:30.867Z,21.13
2022-11-21T01:39:01.044Z,19.17
2022-11-21T01:41:31.404Z,25.03
2022-11-21T01:43:59.877Z,21.63
2022-11-21T01:46:28.297Z,20.20
2022-11-21T01:49:02.916Z,21.70
2022-11-21T01:51:34.026Z,25.27
2022-11-21T01:54:07.488Z,23.53
2022-11-21T01:56:41.042Z,25.77
2022-11-21T01:59:10.511Z,21.07
2022-11-21T02:01:39.100Z,23.47
2022-11-21T02:04:09.103Z,20.97
2022-11-21T02:06:38.524Z,22.47
2022-11-21T02:09:07.974Z,24.90
2022-11-21T02:11:40.670Z,22.23
2022-11-21T02:14:09.806Z,22.97
2022-11-21T02:16:38.535Z,19.17
2022-11-21T02:19:11.571Z,21.63
2022-11-21T02:21:50.894Z,25.13
2022-11-21T02:24:28.500Z,20.93
2022-11-21T02:26:58.920Z,24.07
2022-11-21T02:29:27.978Z,22.73
2022-11-21T02:31:56.094Z,22.30
2022-11-21T02:34:24.218Z,20.07
2022-11-21T02:36:52.348Z,26.80
2022-11-21T02:39:24.715Z,19.67
2022-11-21T02:42:04.563Z,24.03
2022-11-21T02:44:41.188Z,27.20
2022-11-21T02:47:09.324Z,22.23
2022-11-21T02:49:43.447Z,20.90
2022-11-21T02:52:11.582Z,24.97
2022-11-21T02:54:39.690Z,24.00
2022-11-21T02:57:09.147Z,23.40
2022-11-21T02:59:37.349Z,22.30
2022-11-21T03:02:05.471Z,20.80
2022-11-21T03:04:33.586Z,21.00
2022-11-21T03:07:02.040Z,25.13
2022-11-21T03:09:30.208Z,24.40
2022-11-21T03:11:58.335Z,21.33
2022-11-21T03:14:28.049Z,23.50
2022-11-21T03:16:56.450Z,23.80
2022-11-21T03:19:24.729Z,27.63
2022-11-21T03:21:52.854Z,22.17
2022-11-21T03:24:21.078Z,25.57
2022-11-21T03:26:49.196Z,20.80
2022-11-21T03:29:17.403Z,27.50
2022-11-21T03:31:47.130Z,25.50
2022-11-21T03:34:15.367Z,24.33
2022-11-21T03:36:43.512Z,22.57
2022-11-21T03:39:11.652Z,22.77
2022-11-21T03:41:39.800Z,24.83
2022-11-21T03:44:09.986Z,28.70
2022-11-21T03:46:40.649Z,24.60
2022-11-21T03:49:10.837Z,30.80
2022-11-21T03:51:39.520Z,25.20
2022-11-21T03:54:08.619Z,23.03
2022-11-21T03:56:37.294Z,25.57
2022-11-21T03:59:05.411Z,24.33
2022-11-21T04:01:36.634Z,26.20
2022-11-21T04:04:05.635Z,25.47
2022-11-21T04:06:35.276Z,22.80
2022-11-21T04:09:03.431Z,26.20
2022-11-21T04:11:31.684Z,20.70
2022-11-21T04:13:59.798Z,28.93
2022-11-21T04:16:27.927Z,25.80
2022-11-21T04:18:56.376Z,30.00
2022-11-21T04:21:24.576Z,27.63
2022-11-21T04:23:54.039Z,26.27
2022-11-21T04:26:22.440Z,25.97
2022-11-21T04:28:50.561Z,27.93
2022-11-21T04:31:18.764Z,26.97
2022-11-21T04:33:46.870Z,29.00
2022-11-21T04:36:15.116Z,22.80
2022-11-21T04:38:43.269Z,27.13
2022-11-21T04:41:12.737Z,28.50
2022-11-21T04:43:40.903Z,29.30
2022-11-21T04:46:09.524Z,26.23
2022-11-21T04:48:37.666Z,27.23
2022-11-21T04:51:05.818Z,28.73
2022-11-21T04:53:36.389Z,26.70
2022-11-21T04:56:08.445Z,29.57
2022-11-21T04:58:38.573Z,30.27
2022-11-21T05:01:08.170Z,26.30
2022-11-21T05:03:36.742Z,32.07
2022-11-21T05:06:05.102Z,28.53
2022-11-21T05:08:33.256Z,26.97
2022-11-21T05:11:18.974Z,33.73
2022-11-21T05:13:48.743Z,35.00
2022-11-21T05:16:16.875Z,29.83
2022-11-21T05:18:45.010Z,31.33
2022-11-21T05:21:13.363Z,26.90
2022-11-21T05:23:41.519Z,33.47
2022-11-21T05:26:09.648Z,30.40
2022-11-21T05:28:37.859Z,29.57
2022-11-21T05:31:07.380Z,26.87
2022-11-21T05:33:35.504Z,31.13
2022-11-21T05:36:03.694Z,34.63
2022-11-21T05:38:31.871Z,36.77
2022-11-21T05:41:00.306Z,35.77
2022-11-21T05:43:46.697Z,34.27
2022-11-21T05:46:18.521Z,29.97
2022-11-21T05:48:47.314Z,32.47
2022-11-21T05:51:17.868Z,39.30
2022-11-21T05:53:46.406Z,29.50
2022-11-21T05:56:16.031Z,28.60
2022-11-21T05:58:44.813Z,26.30
2022-11-21T06:01:15.621Z,27.47
2022-11-21T06:03:44.128Z,26.33
2022-11-21T06:06:14.360Z,33.10
2022-11-21T06:08:43.915Z,31.00
2022-11-21T06:11:13.599Z,28.03
2022-11-21T06:13:42.344Z,33.10
2022-11-21T06:16:12.236Z,27.87
2022-11-21T06:18:41.759Z,28.33
2022-11-21T06:21:15.534Z,30.37
2022-11-21T06:23:44.412Z,27.83
2022-11-21T06:26:14.756Z,35.77
2022-11-21T06:28:44.212Z,31.00
2022-11-21T06:31:14.646Z,29.00
2022-11-21T06:33:44.100Z,28.80
2022-11-21T06:36:15.180Z,25.60
2022-11-21T06:38:43.451Z,30.80
2022-11-21T06:41:13.913Z,32.90
2022-11-21T06:43:43.091Z,28.80
2022-11-21T06:46:11.503Z,24.13
2022-11-21T06:48:40.353Z,26.90
2022-11-21T06:51:12.294Z,25.17
2022-11-21T06:53:41.770Z,26.80
2022-11-21T06:56:09.919Z,27.37
2022-11-21T06:58:38.451Z,31.30
2022-11-21T07:01:07.727Z,30.60
2022-11-21T07:03:36.373Z,30.70
2022-11-21T07:06:05.119Z,33.37
2022-11-21T07:08:36.257Z,33.87
2022-11-21T07:11:25.267Z,27.93
2022-11-21T07:13:53.891Z,32.30
2022-11-21T07:16:22.024Z,25.43
2022-11-21T07:18:50.180Z,36.83
2022-11-21T07:21:18.707Z,27.87
2022-11-21T07:23:46.944Z,29.30
2022-11-21T07:26:16.410Z,28.90
2022-11-21T07:28:45.099Z,29.83
2022-11-21T07:31:14.377Z,30.27
2022-11-21T07:33:44.194Z,36.30
2022-11-21T07:36:12.964Z,36.87
2022-11-21T07:38:42.041Z,31.43
2022-11-21T07:41:10.754Z,24.60
2022-11-21T07:43:40.421Z,29.27
2022-11-21T07:46:08.589Z,31.07
2022-11-21T07:48:37.013Z,26.03
2022-11-21T07:51:06.537Z,29.90
2022-11-21T07:53:34.719Z,33.13
2022-11-21T07:56:02.999Z,30.97
2022-11-21T07:58:31.261Z,32.20
2022-11-21T08:01:05.186Z,28.77
2022-11-21T08:03:33.520Z,28.60
2022-11-21T08:06:03.859Z,30.60
2022-11-21T08:08:32.574Z,29.73
2022-11-21T08:11:05.505Z,30.63
2022-11-21T08:13:33.972Z,33.23
2022-11-21T08:16:04.769Z,32.93
2022-11-21T08:18:33.186Z,31.40
2022-11-21T08:21:02.431Z,31.87
2022-11-21T08:23:31.042Z,32.13
2022-11-21T08:25:59.426Z,30.87
2022-11-21T08:28:27.640Z,33.47
2022-11-21T08:30:55.812Z,32.07
2022-11-21T08:33:25.354Z,27.57
2022-11-21T08:35:53.500Z,32.20
2022-11-21T08:38:21.693Z,32.53
2022-11-21T08:41:16.098Z,28.40
2022-11-21T08:43:46.062Z,27.03
2022-11-21T08:46:14.268Z,26.43
2022-11-21T08:48:44.032Z,29.57
2022-11-21T08:51:12.246Z,31.03
2022-11-21T08:53:40.417Z,29.80
2022-11-21T08:56:08.540Z,33.17
2022-11-21T08:58:36.982Z,28.63
2022-11-21T09:01:05.174Z,30.23
2022-11-21T09:03:33.420Z,30.90
2022-11-21T09:06:02.952Z,31.20
2022-11-21T09:08:31.418Z,31.30
2022-11-21T09:11:00.047Z,32.03
2022-11-21T09:13:28.492Z,35.00
2022-11-21T09:16:20.221Z,31.10
2022-11-21T09:18:48.887Z,27.43
2022-11-21T09:21:20.094Z,33.40
2022-11-21T09:23:48.611Z,34.40
2022-11-21T09:26:16.802Z,30.07
2022-11-21T09:28:44.937Z,32.40
2022-11-21T09:31:13.447Z,32.30
2022-11-21T09:33:41.839Z,35.57
2022-11-21T09:36:09.973Z,28.17
2022-11-21T09:38:39.472Z,33.50
2022-11-21T09:41:31.844Z,28.40
2022-11-21T09:44:07.734Z,31.70
2022-11-21T09:46:43.887Z,28.43
2022-11-21T09:49:15.134Z,28.40
2022-11-21T09:51:46.143Z,32.13
2022-11-21T09:54:20.851Z,28.40
2022-11-21T09:56:49.987Z,30.70
2022-11-21T09:59:33.296Z,25.60
2022-11-21T10:02:02.321Z,27.67
2022-11-21T10:04:32.220Z,25.23
2022-11-21T10:07:05.461Z,32.63
2022-11-21T10:09:48.053Z,26.20
2022-11-21T10:12:39.667Z,31.57
2022-11-21T10:15:24.958Z,27.67
2022-11-21T10:18:08.227Z,32.20
2022-11-21T10:20:50.880Z,24.33
2022-11-21T10:23:34.310Z,30.40
2022-11-21T10:26:16.371Z,32.20
2022-11-21T10:28:51.599Z,29.00
2022-11-21T10:31:20.396Z,27.97
2022-11-21T10:33:51.077Z,26.97
2022-11-21T10:36:27.636Z,31.30
2022-11-21T10:39:01.870Z,28.30
2022-11-21T10:41:41.522Z,26.97
2022-11-21T10:44:41.806Z,26.03
2022-11-21T10:47:16.680Z,22.00
2022-11-21T10:49:49.190Z,25.10
2022-11-21T10:52:23.352Z,25.07
2022-11-21T10:55:09.151Z,29.20
2022-11-21T10:57:46.270Z,24.23
2022-11-21T11:00:23.704Z,19.63
2022-11-21T11:03:04.753Z,24.17
2022-11-21T11:05:34.228Z,19.77
2022-11-21T11:08:06.224Z,24.90
2022-11-21T11:10:36.357Z,24.70
2022-11-21T11:13:45.888Z,25.53
2022-11-21T11:16:18.282Z,24.23
2022-11-21T11:18:58.220Z,27.53
2022-11-21T11:21:28.748Z,24.90
2022-11-21T11:24:21.042Z,28.80
2022-11-21T11:26:53.644Z,31.67
2022-11-21T11:29:25.021Z,34.50
2022-11-21T11:31:56.996Z,35.53
2022-11-21T11:34:27.794Z,31.07
2022-11-21T11:36:59.958Z,28.77
2022-11-21T11:39:38.596Z,33.87
2022-11-21T11:42:58.580Z,33.40
2022-11-21T11:46:06.091Z,37.30
2022-11-21T11:49:03.270Z,32.70
2022-11-21T11:51:33.051Z,28.77
2022-11-21T11:54:08.345Z,29.43
2022-11-21T11:56:38.594Z,28.37
2022-11-21T11:59:17.516Z,29.53
2022-11-21T12:01:54.204Z,34.20
2022-11-21T12:04:25.043Z,32.20
2022-11-21T12:08:05.890Z,29.93
2022-11-21T12:09:57.829Z,29.57
2022-11-21T12:12:34.891Z,30.00
2022-11-21T12:15:32.946Z,31.90
2022-11-21T12:18:14.968Z,33.50
2022-11-21T12:20:50.758Z,32.23
2022-11-21T12:23:21.171Z,34.47
2022-11-21T12:25:58.651Z,30.23
2022-11-21T12:28:34.439Z,33.83
2022-11-21T12:31:10.479Z,33.03
2022-11-21T12:33:47.633Z,35.70
2022-11-21T12:36:31.334Z,30.00
2022-11-21T12:39:21.810Z,42.30
2022-11-21T12:42:14.691Z,37.10
2022-11-21T12:44:57.341Z,32.20
2022-11-21T12:48:06.371Z,31.93
2022-11-21T12:51:03.886Z,30.30
2022-11-21T12:53:58.031Z,34.30
2022-11-21T12:56:33.511Z,36.77
2022-11-21T12:59:04.446Z,40.13
2022-11-21T13:01:40.048Z,42.23
2022-11-21T13:04:15.046Z,37.73
2022-11-21T13:06:48.143Z,32.93
2022-11-21T13:09:20.105Z,34.80
2022-11-21T13:12:01.208Z,37.70
2022-11-21T13:14:36.460Z,35.17
2022-11-21T13:17:15.505Z,33.53
2022-11-21T13:19:50.255Z,33.27
2022-11-21T13:22:55.229Z,32.93
2022-11-21T13:25:53.496Z,33.10
2022-11-21T13:28:36.842Z,33.53
2022-11-21T13:31:28.965Z,33.30
2022-11-21T13:33:57.589Z,32.20
2022-11-21T13:36:38.304Z,39.53
2022-11-21T13:39:36.006Z,36.73
2022-11-21T13:42:29.766Z,35.00
2022-11-21T13:44:57.963Z,31.37
2022-11-21T13:48:05.645Z,28.57
2022-11-21T13:51:13.411Z,33.03
2022-11-21T13:53:58.381Z,36.50
2022-11-21T13:56:37.625Z,32.70
2022-11-21T13:59:20.778Z,34.60
2022-11-21T14:02:15.892Z,37.37
2022-11-21T14:05:03.199Z,36.13
2022-11-21T14:07:33.681Z,30.33
2022-11-21T14:10:04.338Z,33.37
2022-11-21T14:12:42.873Z,30.20
2022-11-21T14:15:22.727Z,30.90
2022-11-21T14:17:52.711Z,36.87
2022-11-21T14:20:24.498Z,34.27
2022-11-21T14:23:00.894Z,34.27
2022-11-21T14:25:36.431Z,36.30
2022-11-21T14:28:09.586Z,26.10
2022-11-21T14:30:40.097Z,29.60
2022-11-21T14:33:27.013Z,26.73
2022-11-21T14:35:58.793Z,27.20
2022-11-21T14:38:28.662Z,32.13
2022-11-21T14:41:29.473Z,29.83
2022-11-21T14:44:18.286Z,30.77
2022-11-21T14:46:48.340Z,27.47
2022-11-21T14:49:22.234Z,26.43
2022-11-21T14:51:52.559Z,35.23
2022-11-21T14:54:23.442Z,26.33
2022-11-21T14:56:58.452Z,27.77
2022-11-21T14:59:31.738Z,27.97
2022-11-21T15:02:03.713Z,23.87
2022-11-21T15:04:34.949Z,27.33
2022-11-21T15:07:03.918Z,24.57
2022-11-21T15:12:28.341Z,26.33
2022-11-21T15:15:01.717Z,22.30
2022-11-21T15:17:30.334Z,22.23
2022-11-21T15:20:11.639Z,24.40
2022-11-21T15:22:42.628Z,25.07
2022-11-21T15:25:18.013Z,24.43
2022-11-21T15:27:47.304Z,20.00
2022-11-21T15:30:30.391Z,25.77
2022-11-21T15:33:10.752Z,20.63
2022-11-21T15:35:47.443Z,20.90
2022-11-21T15:38:23.026Z,24.77
2022-11-21T15:41:25.766Z,19.67
2022-11-21T15:43:55.829Z,23.70
2022-11-21T15:46:27.160Z,24.20
2022-11-21T15:48:56.756Z,22.80
2022-11-21T15:51:51.283Z,25.40
2022-11-21T15:54:17.428Z,22.77
2022-11-21T15:56:47.191Z,19.07
2022-11-21T15:59:17.352Z,21.80
2022-11-21T16:01:47.025Z,22.07
2022-11-21T16:04:15.283Z,25.00
2022-11-21T16:06:43.431Z,20.50
2022-11-21T16:09:11.546Z,23.47
2022-11-21T16:11:40.577Z,21.27
2022-11-21T16:14:08.991Z,19.20
2022-11-21T16:16:42.866Z,20.13
2022-11-21T16:19:14.386Z,17.70
2022-11-21T16:21:43.217Z,24.43
2022-11-21T16:24:11.529Z,24.00
2022-11-21T16:26:39.783Z,21.43
2022-11-21T16:29:08.149Z,24.57
2022-11-21T16:31:36.600Z,21.90
2022-11-21T16:34:05.331Z,22.63
2022-11-21T16:36:34.945Z,23.27
2022-11-21T16:39:08.920Z,22.43
2022-11-21T16:41:39.321Z,20.67
2022-11-21T16:44:13.770Z,20.50
2022-11-21T16:46:43.479Z,24.83
2022-11-21T16:49:11.810Z,23.50
2022-11-21T16:51:41.250Z,23.40
2022-11-21T16:54:09.794Z,21.30
2022-11-21T16:56:38.121Z,23.00
2022-11-21T16:59:06.193Z,19.77
2022-11-21T17:01:34.388Z,22.53
2022-11-21T17:04:02.728Z,19.10
2022-11-21T17:06:32.488Z,21.03
2022-11-21T17:09:02.870Z,21.27
2022-11-21T17:11:32.171Z,20.30
2022-11-21T17:14:04.143Z,17.00
2022-11-21T17:16:33.190Z,18.83
2022-11-21T17:19:02.841Z,17.97
2022-11-21T17:21:32.281Z,16.50
2022-11-21T17:24:01.799Z,19.10
2022-11-21T17:26:30.596Z,18.73
2022-11-21T17:28:59.990Z,17.20
2022-11-21T17:31:28.790Z,16.90
2022-11-21T17:33:57.770Z,17.47
2022-11-21T17:36:28.015Z,16.10
2022-11-21T17:38:56.715Z,18.53
2022-11-21T17:41:26.939Z,18.20
2022-11-21T17:43:56.420Z,20.80
2022-11-21T17:46:25.996Z,18.40
2022-11-21T17:48:57.737Z,22.30
2022-11-21T17:51:29.828Z,17.13
2022-11-21T17:53:59.438Z,18.57
2022-11-21T17:56:31.226Z,22.07
2022-11-21T17:58:59.769Z,16.40
2022-11-21T18:01:28.560Z,19.47
2022-11-21T18:03:58.548Z,22.37
2022-11-21T18:06:28.566Z,23.33
2022-11-21T18:08:58.435Z,23.27
2022-11-21T18:11:35.866Z,23.03
2022-11-21T18:14:09.470Z,22.27
2022-11-21T18:16:39.394Z,29.17
2022-11-21T18:19:08.547Z,25.00
2022-11-21T18:21:37.338Z,22.50
2022-11-21T18:24:07.234Z,25.53
2022-11-21T18:26:38.371Z,24.57
2022-11-21T18:31:56.184Z,21.77
2022-11-21T18:34:24.393Z,26.97
2022-11-21T18:36:54.263Z,21.63
2022-11-21T18:39:24.870Z,19.50
2022-11-21T18:41:54.444Z,22.13
2022-11-21T18:44:22.958Z,26.27
2022-11-21T18:46:51.634Z,22.90
2022-11-21T18:49:19.801Z,28.13
2022-11-21T18:51:48.408Z,24.60
2022-11-21T18:54:17.084Z,23.47
2022-11-21T18:56:45.314Z,23.90
2022-11-21T18:59:14.816Z,25.00
2022-11-21T19:01:43.338Z,20.03
2022-11-21T19:04:11.607Z,22.90
2022-11-21T19:06:39.764Z,25.40
2022-11-21T19:09:08.388Z,24.20
2022-11-21T19:11:36.699Z,23.13
2022-11-21T19:14:04.932Z,25.00
2022-11-21T19:16:34.944Z,23.67
2022-11-21T19:21:54.842Z,24.67
2022-11-21T19:24:22.995Z,23.23
2022-11-21T19:26:51.132Z,27.60
2022-11-21T19:29:19.541Z,26.33
2022-11-21T19:31:49.019Z,32.90
2022-11-21T19:34:17.614Z,27.20
2022-11-21T19:36:46.148Z,24.33
2022-11-21T19:39:14.873Z,25.77
2022-11-21T19:41:43.275Z,25.97
2022-11-21T19:44:12.394Z,23.47
2022-11-21T19:46:40.720Z,26.17
2022-11-21T19:49:12.610Z,26.67
2022-11-21T19:51:42.634Z,30.07
2022-11-21T19:54:13.487Z,29.50
2022-11-21T19:56:41.634Z,24.00
2022-11-21T19:59:12.978Z,26.97
2022-11-21T20:01:41.367Z,26.33
2022-11-21T20:04:12.305Z,25.97
2022-11-21T20:06:43.001Z,27.47
2022-11-21T20:09:12.622Z,28.90
2022-11-21T20:11:43.070Z,29.30
2022-11-21T20:14:16.292Z,36.53
2022-11-21T20:16:49.752Z,30.63
2022-11-21T20:19:20.907Z,29.73
2022-11-21T20:21:49.741Z,27.63
2022-11-21T20:24:18.965Z,33.27
2022-11-21T20:26:47.252Z,31.87
2022-11-21T20:29:16.138Z,33.77
2022-11-21T20:31:45.102Z,33.63
2022-11-21T20:34:14.380Z,35.40
2022-11-21T20:36:44.199Z,33.70
2022-11-21T20:39:16.448Z,35.63
2022-11-21T20:41:45.506Z,31.97
2022-11-21T20:47:03.864Z,26.07
2022-11-21T20:49:32.355Z,38.20
2022-11-21T20:54:50.315Z,35.80
2022-11-21T20:57:18.551Z,30.87
2022-11-21T20:59:46.734Z,29.13
2022-11-21T21:02:15.728Z,31.43
2022-11-21T21:04:43.937Z,33.67
2022-11-21T21:07:13.902Z,31.33
2022-11-21T21:09:42.068Z,38.03
2022-11-21T21:12:10.244Z,33.10
2022-11-21T21:14:38.393Z,34.90
2022-11-21T21:17:06.617Z,35.33
2022-11-21T21:19:34.841Z,32.40
2022-11-21T21:22:04.893Z,36.43
2022-11-21T21:24:34.483Z,30.80
2022-11-21T21:27:02.633Z,38.10
2022-11-21T21:29:31.186Z,34.10
2022-11-21T21:31:59.579Z,36.87
2022-11-21T21:34:28.497Z,39.13
2022-11-21T21:36:56.904Z,36.33
2022-11-21T21:39:25.549Z,38.50
2022-11-21T21:41:55.344Z,35.80
2022-11-21T21:44:27.019Z,33.30
2022-11-21T21:46:58.435Z,31.63
2022-11-21T21:49:26.543Z,33.20
2022-11-21T21:51:54.785Z,31.33
2022-11-21T21:54:23.271Z,29.43
2022-11-21T21:56:51.503Z,28.83
2022-11-21T21:59:20.962Z,33.17
2022-11-21T22:01:49.276Z,34.77
2022-11-21T22:04:17.551Z,34.80
2022-11-21T22:06:47.900Z,35.90
2022-11-21T22:09:16.026Z,34.60
2022-11-21T22:11:44.183Z,29.40
2022-11-21T22:14:14.323Z,32.67
2022-11-21T22:16:44.654Z,34.10
2022-11-21T22:19:13.090Z,34.23
2022-11-21T22:21:41.348Z,29.57
2022-11-21T22:24:29.994Z,33.97
2022-11-21T22:26:58.239Z,32.07
2022-11-21T22:29:26.497Z,30.77
2022-11-21T22:31:56.354Z,37.60
2022-11-21T22:34:26.612Z,28.37
2022-11-21T22:36:54.792Z,30.73
2022-11-21T22:39:23.059Z,35.73
2022-11-21T22:41:54.591Z,28.77
2022-11-21T22:44:25.224Z,34.33
2022-11-21T22:46:53.363Z,35.77
2022-11-21T22:49:22.823Z,27.63
2022-11-21T22:51:51.052Z,27.37
2022-11-21T22:54:19.275Z,24.60
2022-11-21T22:56:47.371Z,30.50
2022-11-21T22:59:15.747Z,30.37
2022-11-21T23:01:43.942Z,23.43
2022-11-21T23:04:17.289Z,22.90
2022-11-21T23:06:47.267Z,39.83
2022-11-21T23:09:15.425Z,21.00
2022-11-21T23:11:50.413Z,26.00
2022-11-21T23:14:18.843Z,22.30
2022-11-21T23:16:46.994Z,21.87
2022-11-21T23:19:15.178Z,26.70
2022-11-21T23:21:43.299Z,27.83
2022-11-21T23:24:13.432Z,25.53
2022-11-21T23:26:41.595Z,28.60
2022-11-21T23:29:09.709Z,30.90
2022-11-21T23:31:37.915Z,26.17
2022-11-21T23:34:06.336Z,28.87
2022-11-21T23:36:34.830Z,24.77
2022-11-21T23:39:02.969Z,25.53
2022-11-21T23:41:32.500Z,26.80
2022-11-21T23:44:01.087Z,30.40
2022-11-21T23:46:31.149Z,22.07
2022-11-21T23:48:59.673Z,22.77
2022-11-21T23:51:27.927Z,24.23
2022-11-21T23:53:56.056Z,24.90
2022-11-21T23:56:24.182Z,28.23
2022-11-21T23:58:53.672Z,23.30
